Time;durP1;ratioP1;P1;durP2;ratioP2;P2;SDS_P1;SDS_P2;PMS_P1;PMS_P2;Temp;Humidity;BMP_temperature;BMP_pressure;BME280_temperature;BME280_humidity;BME280_pressure;Samples;Min_cycle;Max_cycle;Signal;HPM_P1;HPM_P2
2021/06/12 00:01:57;;;;;;;8.40;7.60;;;23.10;96.70;;;;;;4918156;29;20470;-54
2021/06/12 00:04:23;;;;;;;7.83;7.03;;;23.00;97.10;;;;;;4898727;29;20446;-50
2021/06/12 00:06:49;;;;;;;8.90;7.50;;;23.00;97.50;;;;;;4898547;29;20450;-53
2021/06/12 00:09:16;;;;;;;7.80;6.53;;;23.00;97.90;;;;;;4898598;29;20469;-45
2021/06/12 00:11:43;;;;;;;8.80;7.90;;;23.00;98.40;;;;;;4898160;29;20458;-45
2021/06/12 00:14:09;;;;;;;6.73;6.03;;;22.90;98.60;;;;;;4898354;29;20465;-53
2021/06/12 00:16:35;;;;;;;8.83;7.93;;;22.90;99.20;;;;;;4898457;29;20461;-48
2021/06/12 00:19:02;;;;;;;9.77;7.97;;;22.90;99.70;;;;;;4898658;29;20451;-49
2021/06/12 00:21:28;;;;;;;10.47;7.20;;;22.80;99.90;;;;;;4898176;29;20462;-47
2021/06/12 00:23:54;;;;;;;13.60;7.63;;;22.80;99.90;;;;;;4898296;29;20458;-44
2021/06/12 00:26:20;;;;;;;8.27;6.27;;;22.80;99.90;;;;;;4898549;29;20466;-45
2021/06/12 00:28:48;;;;;;;12.23;6.97;;;22.70;99.90;;;;;;4898194;29;20465;-48
2021/06/12 00:31:14;;;;;;;12.13;6.77;;;22.70;99.90;;;;;;4898327;29;20465;-45
2021/06/12 00:33:40;;;;;;;10.10;6.80;;;22.70;99.90;;;;;;4898709;29;20473;-50
2021/06/12 00:36:06;;;;;;;6.67;5.97;;;22.60;99.90;;;;;;4898216;29;20497;-47
2021/06/12 00:38:33;;;;;;;9.33;7.10;;;22.60;99.90;;;;;;4901276;29;20466;-51
2021/06/12 00:40:59;;;;;;;11.13;7.87;;;22.50;99.90;;;;;;4898419;29;20446;-48
2021/06/12 00:43:25;;;;;;;7.93;6.43;;;22.50;99.90;;;;;;4898031;29;20957;-51
2021/06/12 00:45:53;;;;;;;6.73;5.83;;;22.50;99.90;;;;;;4898120;29;21049;-49
2021/06/12 00:48:21;;;;;;;9.03;7.37;;;22.50;99.90;;;;;;4898296;29;20454;-49
2021/06/12 00:50:47;;;;;;;9.37;8.47;;;22.40;99.90;;;;;;4898338;29;20462;-51
2021/06/12 00:53:18;;;;;;;7.30;6.60;;;22.50;99.90;;;;;;4898079;29;20454;-52
2021/06/12 00:55:45;;;;;;;7.60;6.80;;;22.50;99.90;;;;;;4912456;29;20949;-45
2021/06/12 00:58:13;;;;;;;6.90;6.00;;;22.50;99.90;;;;;;4917403;29;20904;-49
2021/06/12 01:00:39;;;;;;;10.20;6.73;;;22.50;99.90;;;;;;4918247;29;20446;-46
2021/06/12 01:03:07;;;;;;;7.80;6.80;;;22.50;99.90;;;;;;4921053;29;20807;-52
2021/06/12 01:05:34;;;;;;;10.00;7.67;;;22.50;99.90;;;;;;4920616;29;20472;-53
2021/06/12 01:08:00;;;;;;;9.40;6.53;;;22.60;99.90;;;;;;4920946;29;20457;-47
2021/06/12 01:10:26;;;;;;;9.20;6.90;;;22.60;99.90;;;;;;4920446;29;20459;-47
2021/06/12 01:13:04;;;;;;;9.20;7.23;;;22.70;99.90;;;;;;4920720;29;20646;-50
2021/06/12 01:15:36;;;;;;;8.90;6.50;;;22.60;99.90;;;;;;4920461;29;20995;-52
2021/06/12 01:18:07;;;;;;;8.67;6.40;;;22.60;99.90;;;;;;4920569;29;20938;-52
2021/06/12 01:20:55;;;;;;;9.03;6.43;;;22.70;99.90;;;;;;4920602;29;20889;-50
2021/06/12 01:23:52;;;;;;;11.77;7.10;;;22.70;99.90;;;;;;4920433;29;20532;-50
2021/06/12 01:26:31;;;;;;;8.30;6.93;;;22.70;99.90;;;;;;4920149;29;20951;-50
2021/06/12 01:29:10;;;;;;;7.70;7.00;;;22.80;99.90;;;;;;4920609;29;20437;-49
2021/06/12 01:31:39;;;;;;;7.43;6.73;;;22.70;99.90;;;;;;4920165;29;20905;-51
2021/06/12 01:34:08;;;;;;;6.97;6.33;;;22.70;99.90;;;;;;4920426;29;20469;-49
2021/06/12 01:36:34;;;;;;;7.23;6.10;;;22.80;99.90;;;;;;4920385;29;20956;-47
2021/06/12 01:39:04;;;;;;;6.80;6.20;;;22.80;99.90;;;;;;4920157;29;20509;-45
2021/06/12 01:41:32;;;;;;;6.83;5.70;;;22.80;99.90;;;;;;4920244;29;20464;-45
2021/06/12 01:43:59;;;;;;;8.00;6.27;;;22.80;99.90;;;;;;4920297;29;20460;-47
2021/06/12 01:46:26;;;;;;;8.53;6.40;;;22.80;99.90;;;;;;4944124;23;20489;-55
2021/06/12 01:48:56;;;;;;;6.57;5.87;;;22.80;99.90;;;;;;4989556;23;20555;-53
2021/06/12 01:51:22;;;;;;;7.50;6.77;;;22.80;99.90;;;;;;4958158;29;20490;-49
2021/06/12 01:53:53;;;;;;;6.97;6.03;;;22.70;99.90;;;;;;4957984;29;20447;-52
2021/06/12 01:56:20;;;;;;;9.83;7.83;;;22.70;99.90;;;;;;4957557;29;20483;-47
2021/06/12 01:58:47;;;;;;;7.23;6.53;;;22.70;99.90;;;;;;4958204;29;20789;-46
2021/06/12 02:01:15;;;;;;;6.97;6.27;;;22.70;99.90;;;;;;4957984;29;20484;-47
2021/06/12 02:03:44;;;;;;;7.67;5.93;;;22.80;99.90;;;;;;4957763;29;20451;-49
2021/06/12 02:06:14;;;;;;;8.97;6.60;;;22.80;99.90;;;;;;4958295;29;21062;-46
2021/06/12 02:08:41;;;;;;;7.97;7.23;;;22.70;99.90;;;;;;4957825;29;20492;-45
2021/06/12 02:11:08;;;;;;;7.03;6.17;;;22.70;99.90;;;;;;4957875;29;20847;-51
2021/06/12 02:13:36;;;;;;;7.50;6.80;;;22.70;99.90;;;;;;4956882;28;20511;-48
2021/06/12 02:16:04;;;;;;;7.60;6.00;;;22.80;99.90;;;;;;4957436;29;20518;-53
2021/06/12 02:18:31;;;;;;;7.40;6.63;;;22.80;99.90;;;;;;4957639;29;20488;-54
2021/06/12 02:20:59;;;;;;;6.63;6.03;;;22.70;99.90;;;;;;4957497;29;20470;-51
2021/06/12 02:23:28;;;;;;;7.53;6.10;;;22.70;99.90;;;;;;4957664;29;20448;-56
2021/06/12 02:25:55;;;;;;;7.77;6.00;;;22.80;99.90;;;;;;4957372;29;20950;-52
2021/06/12 02:28:28;;;;;;;7.10;6.30;;;22.80;99.90;;;;;;4957543;29;20456;-50
2021/06/12 02:30:58;;;;;;;7.07;6.40;;;22.80;99.90;;;;;;4957746;29;20448;-50
2021/06/12 02:33:26;;;;;;;8.17;6.77;;;22.70;99.90;;;;;;4957585;29;20514;-52
2021/06/12 02:35:54;;;;;;;7.20;6.50;;;22.70;99.90;;;;;;4957312;29;20494;-51
2021/06/12 02:38:20;;;;;;;7.63;6.70;;;22.60;99.90;;;;;;4957354;29;20448;-51
2021/06/12 02:40:48;;;;;;;8.03;6.53;;;22.60;99.90;;;;;;4957096;29;20951;-49
2021/06/12 02:43:15;;;;;;;7.37;6.60;;;22.60;99.90;;;;;;4957143;29;20898;-47
2021/06/12 02:45:41;;;;;;;6.30;5.80;;;22.60;99.90;;;;;;4956844;29;20444;-49
2021/06/12 02:48:13;;;;;;;8.50;7.60;;;22.60;99.90;;;;;;4961725;28;20479;-48
2021/06/12 02:50:40;;;;;;;7.70;6.90;;;22.50;99.90;;;;;;4976319;28;20447;-46
2021/06/12 02:53:08;;;;;;;6.77;6.00;;;22.50;99.90;;;;;;4976375;28;20446;-45
2021/06/12 02:55:38;;;;;;;7.10;6.40;;;22.40;99.90;;;;;;4976235;28;20482;-45
2021/06/12 02:58:07;;;;;;;7.00;6.30;;;22.50;99.90;;;;;;4976336;28;20463;-52
2021/06/12 03:00:35;;;;;;;7.57;6.93;;;22.40;99.90;;;;;;4976389;28;20447;-49
2021/06/12 03:03:03;;;;;;;6.80;6.20;;;22.40;99.90;;;;;;4976186;28;20470;-51
2021/06/12 03:05:32;;;;;;;8.07;6.40;;;22.30;99.90;;;;;;4976148;28;20474;-50
2021/06/12 03:08:00;;;;;;;6.90;6.30;;;22.30;99.90;;;;;;4976334;28;20848;-51
2021/06/12 03:10:29;;;;;;;6.90;6.30;;;22.30;99.90;;;;;;4976229;28;20447;-46
2021/06/12 03:12:56;;;;;;;7.10;6.40;;;22.40;99.90;;;;;;4976170;28;20451;-50
2021/06/12 03:15:26;;;;;;;7.10;6.50;;;22.30;99.90;;;;;;4976046;28;20486;-47
2021/06/12 03:17:53;;;;;;;8.43;6.60;;;22.30;99.90;;;;;;4976207;28;21036;-50
2021/06/12 03:20:20;;;;;;;10.13;5.50;;;22.30;99.90;;;;;;4976177;28;20772;-54
2021/06/12 03:22:49;;;;;;;6.83;6.10;;;22.30;99.90;;;;;;4975920;28;20447;-47
2021/06/12 03:25:19;;;;;;;7.17;4.97;;;22.30;99.90;;;;;;4975971;28;20526;-52
2021/06/12 03:27:46;;;;;;;5.23;4.73;;;22.30;99.90;;;;;;4975918;28;20450;-49
2021/06/12 03:30:13;;;;;;;5.17;4.70;;;22.30;99.90;;;;;;4976052;28;20447;-52
2021/06/12 03:32:41;;;;;;;5.60;5.00;;;22.20;99.90;;;;;;4976114;28;20473;-46
2021/06/12 03:35:09;;;;;;;5.20;4.73;;;22.10;99.90;;;;;;4976000;28;20570;-50
2021/06/12 03:37:38;;;;;;;5.63;4.77;;;22.10;99.90;;;;;;4976657;28;20466;-52
2021/06/12 03:40:05;;;;;;;5.53;4.67;;;22.10;99.90;;;;;;4976155;28;20463;-53
2021/06/12 03:42:32;;;;;;;5.40;4.40;;;22.10;99.90;;;;;;4976725;28;20451;-52
2021/06/12 03:45:01;;;;;;;5.37;4.87;;;22.10;99.90;;;;;;4977210;28;20442;-55
2021/06/12 03:47:32;;;;;;;4.90;3.80;;;22.20;99.90;;;;;;4976380;28;20517;-51
2021/06/12 03:50:01;;;;;;;5.47;4.97;;;22.10;99.90;;;;;;4957160;29;20459;-49
2021/06/12 03:52:29;;;;;;;4.77;4.37;;;22.10;99.90;;;;;;4956460;29;20782;-48
2021/06/12 03:54:57;;;;;;;4.83;4.43;;;22.00;99.90;;;;;;4956305;29;20978;-53
2021/06/12 03:57:24;;;;;;;4.27;3.87;;;22.00;99.90;;;;;;4955701;29;20951;-50
2021/06/12 03:59:51;;;;;;;5.70;5.20;;;22.00;99.90;;;;;;4955703;29;20529;-47
2021/06/12 04:02:18;;;;;;;5.00;4.30;;;21.90;99.90;;;;;;4955589;29;20476;-46
2021/06/12 04:04:46;;;;;;;4.57;4.20;;;21.90;99.90;;;;;;4955532;29;20473;-45
2021/06/12 04:07:16;;;;;;;4.60;4.20;;;21.80;99.90;;;;;;4955732;29;20474;-50
2021/06/12 04:09:43;;;;;;;5.90;4.90;;;21.80;99.90;;;;;;4955548;29;20435;-51
2021/06/12 04:12:10;;;;;;;4.97;4.50;;;21.70;99.90;;;;;;4955545;29;20458;-48
2021/06/12 04:14:36;;;;;;;5.40;4.93;;;21.70;99.90;;;;;;4955626;29;20770;-51
2021/06/12 04:17:04;;;;;;;5.13;4.63;;;21.70;99.90;;;;;;4955501;29;20460;-52
2021/06/12 04:19:31;;;;;;;10.73;4.77;;;21.70;99.90;;;;;;4955717;29;20448;-49
2021/06/12 04:21:57;;;;;;;5.10;4.70;;;21.70;99.90;;;;;;4955979;29;20488;-49
2021/06/12 04:24:24;;;;;;;4.83;4.43;;;21.70;99.90;;;;;;4955535;29;20765;-49
2021/06/12 04:26:50;;;;;;;4.73;4.30;;;21.70;99.90;;;;;;4955933;29;20464;-51
2021/06/12 04:29:16;;;;;;;3.83;3.53;;;21.80;99.90;;;;;;4955462;29;20448;-50
2021/06/12 04:31:43;;;;;;;4.63;4.20;;;21.80;99.90;;;;;;4956123;29;20534;-47
2021/06/12 04:34:09;;;;;;;5.03;4.53;;;21.80;99.90;;;;;;4956424;29;20459;-48
2021/06/12 04:36:35;;;;;;;5.13;4.63;;;21.90;99.90;;;;;;4958701;28;20489;-49
2021/06/12 04:39:01;;;;;;;5.20;4.20;;;21.80;99.90;;;;;;4959666;29;20463;-52
2021/06/12 04:41:29;;;;;;;4.40;4.00;;;21.90;99.90;;;;;;4961385;29;20440;-49
2021/06/12 04:43:55;;;;;;;5.50;5.00;;;21.90;99.90;;;;;;4962320;29;20774;-46
2021/06/12 04:46:21;;;;;;;5.30;4.80;;;21.90;99.90;;;;;;4962881;29;20447;-47
2021/06/12 04:48:48;;;;;;;4.40;3.97;;;21.90;99.90;;;;;;4960002;28;20533;-52
2021/06/12 04:51:14;;;;;;;4.40;4.00;;;21.90;99.90;;;;;;4959572;29;20454;-49
2021/06/12 04:53:40;;;;;;;5.50;5.00;;;22.00;99.90;;;;;;4959515;29;20906;-48
2021/06/12 04:56:06;;;;;;;5.67;4.40;;;22.00;99.90;;;;;;4959628;29;21122;-48
2021/06/12 04:58:34;;;;;;;4.70;3.97;;;21.90;99.90;;;;;;4959423;29;20459;-45
2021/06/12 05:01:00;;;;;;;4.17;3.80;;;21.90;99.90;;;;;;4959909;29;20511;-48
2021/06/12 05:03:26;;;;;;;4.03;3.63;;;22.00;99.90;;;;;;4959462;29;20456;-45
2021/06/12 05:05:52;;;;;;;3.63;3.33;;;22.10;99.90;;;;;;4959120;29;20456;-48
2021/06/12 05:08:18;;;;;;;8.63;4.23;;;22.00;99.90;;;;;;4960368;29;20458;-46
2021/06/12 05:10:45;;;;;;;5.03;4.63;;;22.00;99.90;;;;;;4961888;29;20916;-44
2021/06/12 05:13:11;;;;;;;3.80;3.50;;;22.10;99.90;;;;;;4962355;29;20455;-50
2021/06/12 05:15:39;;;;;;;4.30;4.00;;;22.10;99.90;;;;;;4960792;29;20483;-50
2021/06/12 05:18:06;;;;;;;4.47;4.07;;;22.20;99.90;;;;;;4961344;29;20784;-50
2021/06/12 05:20:35;;;;;;;5.00;4.50;;;22.20;99.90;;;;;;4960795;29;20459;-46
2021/06/12 05:23:01;;;;;;;4.30;3.97;;;22.30;99.90;;;;;;4961519;29;20474;-50
2021/06/12 05:25:27;;;;;;;6.87;3.57;;;22.30;99.90;;;;;;4961500;29;20757;-47
2021/06/12 05:27:53;;;;;;;5.97;3.43;;;22.30;99.90;;;;;;4961621;29;20525;-45
2021/06/12 05:30:21;;;;;;;4.67;4.10;;;22.40;99.90;;;;;;4961373;29;20444;-52
2021/06/12 05:32:48;;;;;;;4.00;3.63;;;22.40;99.90;;;;;;4955266;29;20463;-53
2021/06/12 05:35:14;;;;;;;4.37;3.97;;;22.50;99.90;;;;;;4951745;29;20480;-46
2021/06/12 05:37:41;;;;;;;4.83;4.43;;;22.60;99.90;;;;;;4952094;29;20943;-49
2021/06/12 05:40:09;;;;;;;5.00;4.30;;;22.70;99.90;;;;;;4952039;29;20459;-51
2021/06/12 05:42:36;;;;;;;4.20;3.80;;;22.80;99.90;;;;;;4951443;29;20440;-49
2021/06/12 05:45:04;;;;;;;4.17;3.77;;;22.90;99.90;;;;;;4948372;29;20460;-47
2021/06/12 05:47:31;;;;;;;4.07;3.73;;;23.00;99.90;;;;;;4947951;28;20511;-52
2021/06/12 05:49:58;;;;;;;4.60;4.20;;;22.90;99.90;;;;;;4950508;29;20840;-49
2021/06/12 05:52:25;;;;;;;4.40;3.70;;;22.80;99.90;;;;;;4950701;29;20451;-48
2021/06/12 05:54:51;;;;;;;4.97;4.30;;;22.90;99.90;;;;;;4949853;29;20790;-45
2021/06/12 05:57:17;;;;;;;5.20;4.60;;;23.00;99.90;;;;;;4948119;29;20447;-51
2021/06/12 05:59:43;;;;;;;4.73;4.33;;;23.00;99.90;;;;;;4948717;29;20452;-44
2021/06/12 06:02:09;;;;;;;5.03;3.60;;;23.10;99.90;;;;;;4946728;29;20498;-49
2021/06/12 06:04:35;;;;;;;8.10;5.43;;;23.00;99.90;;;;;;4943828;29;20473;-50
2021/06/12 06:07:03;;;;;;;6.60;5.00;;;22.90;99.90;;;;;;4949610;29;20437;-46
2021/06/12 06:09:29;;;;;;;5.20;4.70;;;22.80;99.90;;;;;;4948552;29;20983;-50
2021/06/12 06:11:55;;;;;;;6.40;4.03;;;22.60;99.90;;;;;;4950071;29;20496;-49
2021/06/12 06:14:22;;;;;;;4.97;4.57;;;22.50;99.90;;;;;;4947547;29;20445;-45
2021/06/12 06:16:48;;;;;;;5.23;4.73;;;22.40;99.90;;;;;;4947270;29;20492;-47
2021/06/12 06:19:14;;;;;;;5.20;4.33;;;22.30;99.90;;;;;;4948150;29;20476;-49
2021/06/12 06:21:41;;;;;;;6.20;4.40;;;22.10;99.90;;;;;;4947446;29;20452;-49
2021/06/12 06:24:09;;;;;;;4.90;4.50;;;22.00;99.90;;;;;;4949293;29;20457;-49
2021/06/12 06:26:35;;;;;;;5.30;4.03;;;21.90;99.90;;;;;;4949102;29;20476;-46
2021/06/12 06:29:01;;;;;;;4.37;3.97;;;22.00;99.90;;;;;;4945868;29;20516;-45
2021/06/12 06:31:27;;;;;;;5.70;4.83;;;21.90;99.90;;;;;;4951599;29;20451;-46
2021/06/12 06:33:53;;;;;;;4.50;4.10;;;21.90;99.90;;;;;;4946742;29;20451;-45
2021/06/12 06:36:21;;;;;;;5.60;4.57;;;21.90;99.90;;;;;;4948949;29;20823;-46
2021/06/12 06:38:47;;;;;;;4.50;4.10;;;22.00;99.90;;;;;;4946376;29;20454;-49
2021/06/12 06:41:14;;;;;;;6.60;4.60;;;22.00;99.90;;;;;;4947694;29;20455;-48
2021/06/12 06:43:41;;;;;;;4.43;4.03;;;22.00;99.90;;;;;;4946780;29;20455;-44
2021/06/12 06:46:07;;;;;;;5.70;4.53;;;22.00;99.90;;;;;;4947834;29;20501;-44
2021/06/12 06:48:33;;;;;;;6.50;4.53;;;22.00;99.90;;;;;;4955414;28;20545;-51
2021/06/12 06:50:59;;;;;;;5.50;4.23;;;21.90;99.90;;;;;;4974540;28;20471;-47
2021/06/12 06:53:32;;;;;;;7.17;5.10;;;21.90;99.90;;;;;;4971876;28;20447;-49
2021/06/12 06:55:58;;;;;;;5.37;3.50;;;22.00;99.90;;;;;;4967768;28;20502;-46
2021/06/12 06:58:26;;;;;;;4.80;4.30;;;21.90;99.90;;;;;;4959892;28;20443;-50
2021/06/12 07:00:52;;;;;;;4.43;4.03;;;22.00;99.90;;;;;;4968215;28;20657;-49
2021/06/12 07:03:18;;;;;;;4.97;4.57;;;22.00;99.90;;;;;;4963033;28;20513;-48
2021/06/12 07:05:44;;;;;;;5.40;4.30;;;21.90;99.90;;;;;;4959151;29;20448;-52
2021/06/12 07:08:11;;;;;;;8.40;5.20;;;21.90;99.90;;;;;;4958617;29;20515;-50
2021/06/12 07:10:37;;;;;;;4.53;4.13;;;22.00;99.90;;;;;;4959692;29;20467;-50
2021/06/12 07:13:03;;;;;;;8.37;4.50;;;22.10;99.90;;;;;;4958959;29;20484;-51
2021/06/12 07:15:30;;;;;;;5.63;4.50;;;22.20;99.90;;;;;;4959303;29;20479;-44
2021/06/12 07:17:57;;;;;;;5.30;4.80;;;22.10;99.90;;;;;;4960287;29;20451;-54
2021/06/12 07:20:24;;;;;;;5.97;5.13;;;22.20;99.90;;;;;;4960292;29;20451;-44
2021/06/12 07:22:51;;;;;;;7.73;6.70;;;22.20;99.90;;;;;;4959224;29;20443;-45
2021/06/12 07:25:18;;;;;;;5.17;4.43;;;22.30;99.90;;;;;;4959331;29;20459;-44
2021/06/12 07:27:44;;;;;;;4.77;4.37;;;22.30;99.90;;;;;;4958514;29;20456;-52
2021/06/12 07:30:11;;;;;;;6.30;5.70;;;22.40;99.90;;;;;;4958549;29;20523;-50
2021/06/12 07:32:39;;;;;;;6.47;5.07;;;22.50;99.90;;;;;;4958141;29;20448;-50
2021/06/12 07:35:05;;;;;;;6.90;5.00;;;22.50;99.90;;;;;;4958189;29;20511;-50
2021/06/12 07:37:32;;;;;;;7.50;6.07;;;22.40;99.90;;;;;;4957955;29;20464;-46
2021/06/12 07:39:58;;;;;;;9.43;7.30;;;22.50;99.90;;;;;;4958320;29;20842;-51
2021/06/12 07:42:24;;;;;;;6.60;5.63;;;22.50;99.90;;;;;;4958273;29;20463;-50
2021/06/12 07:44:50;;;;;;;8.40;6.70;;;22.40;99.90;;;;;;4958014;28;20451;-47
2021/06/12 07:47:17;;;;;;;8.60;7.23;;;22.40;99.90;;;;;;4957601;29;20455;-47
2021/06/12 07:49:44;;;;;;;8.73;6.43;;;22.30;99.90;;;;;;4958178;29;20970;-48
2021/06/12 07:52:10;;;;;;;7.23;6.53;;;22.30;99.90;;;;;;4958218;29;20895;-47
2021/06/12 07:54:37;;;;;;;7.40;6.27;;;22.20;99.90;;;;;;4957369;29;20452;-49
2021/06/12 07:57:03;;;;;;;10.70;6.60;;;22.20;99.90;;;;;;4959379;29;20540;-47
2021/06/12 07:59:29;;;;;;;11.27;7.00;;;22.20;99.90;;;;;;4958648;29;20470;-50
2021/06/12 08:01:56;;;;;;;8.13;7.10;;;22.20;99.90;;;;;;4958270;29;20792;-47
2021/06/12 08:04:23;;;;;;;7.63;6.90;;;22.30;99.90;;;;;;4958419;29;20590;-45
2021/06/12 08:06:51;;;;;;;8.57;6.80;;;22.40;99.90;;;;;;4956776;29;20456;-47
2021/06/12 08:09:19;;;;;;;12.30;7.90;;;22.30;99.90;;;;;;4956817;28;20550;-49
2021/06/12 08:11:45;;;;;;;9.00;7.53;;;22.30;99.90;;;;;;4959440;29;20455;-49
2021/06/12 08:14:11;;;;;;;7.20;6.50;;;22.40;99.90;;;;;;4960177;29;20451;-47
2021/06/12 08:16:37;;;;;;;13.10;7.17;;;22.30;99.90;;;;;;4960515;29;20487;-46
2021/06/12 08:19:03;;;;;;;9.87;7.33;;;22.40;99.90;;;;;;4960370;29;20471;-47
2021/06/12 08:21:29;;;;;;;10.50;7.67;;;22.40;99.90;;;;;;4960347;29;20954;-49
2021/06/12 08:23:57;;;;;;;9.17;7.50;;;22.30;99.90;;;;;;4960507;29;20790;-48
2021/06/12 08:26:23;;;;;;;9.10;7.70;;;22.30;99.90;;;;;;4960516;29;20455;-46
2021/06/12 08:28:50;;;;;;;10.77;9.33;;;22.40;99.90;;;;;;4962374;28;20444;-45
2021/06/12 08:31:16;;;;;;;8.43;7.53;;;22.40;99.90;;;;;;4975058;28;20451;-48
2021/06/12 08:33:42;;;;;;;10.53;8.23;;;22.40;99.90;;;;;;4979055;28;20454;-48
2021/06/12 08:36:08;;;;;;;10.83;9.30;;;22.40;99.90;;;;;;4979483;28;20483;-49
2021/06/12 08:38:35;;;;;;;9.43;7.97;;;22.40;99.90;;;;;;4980835;28;20455;-49
2021/06/12 08:41:03;;;;;;;12.47;8.87;;;22.50;99.90;;;;;;4979589;28;20525;-46
2021/06/12 08:43:30;;;;;;;10.07;8.80;;;22.60;99.90;;;;;;4969559;28;20454;-52
2021/06/12 08:45:57;;;;;;;11.70;8.47;;;22.70;99.90;;;;;;4981168;28;20447;-48
2021/06/12 08:48:24;;;;;;;8.30;7.37;;;22.70;99.90;;;;;;4979900;28;21110;-50
2021/06/12 08:50:51;;;;;;;8.37;7.17;;;23.00;99.90;;;;;;4980684;28;20758;-51
2021/06/12 08:53:17;;;;;;;10.37;7.73;;;23.00;99.90;;;;;;4980401;28;20534;-52
2021/06/12 08:55:45;;;;;;;12.90;8.63;;;22.90;99.90;;;;;;4980086;28;20486;-46
2021/06/12 08:58:13;;;;;;;10.70;9.23;;;22.90;99.90;;;;;;4979552;28;20925;-50
2021/06/12 09:00:42;;;;;;;10.70;9.40;;;22.90;99.90;;;;;;4979046;28;20910;-52
2021/06/12 09:03:15;;;;;;;10.30;7.50;;;22.80;99.90;;;;;;4979071;28;20454;-50
2021/06/12 09:05:48;;;;;;;10.97;8.10;;;22.90;99.90;;;;;;4978997;28;20565;-49
2021/06/12 09:08:15;;;;;;;7.97;6.60;;;22.90;99.90;;;;;;4978882;28;20521;-51
2021/06/12 09:10:54;;;;;;;10.50;9.33;;;22.90;99.90;;;;;;4979337;28;20451;-44
2021/06/12 09:13:40;;;;;;;10.87;7.43;;;22.80;99.90;;;;;;4979136;28;20526;-49
2021/06/12 09:16:08;;;;;;;8.80;7.57;;;22.60;99.90;;;;;;4978872;28;20498;-44
2021/06/12 09:18:39;;;;;;;11.80;8.73;;;22.60;99.90;;;;;;4973827;28;20482;-47
2021/06/12 09:21:06;;;;;;;8.60;7.80;;;22.50;99.90;;;;;;4960847;28;20785;-47
2021/06/12 09:23:40;;;;;;;10.97;8.80;;;22.40;99.90;;;;;;4979668;28;20470;-48
2021/06/12 09:26:07;;;;;;;14.43;8.60;;;22.40;99.90;;;;;;4979490;28;20454;-46
2021/06/12 09:28:52;;;;;;;10.53;9.40;;;22.20;99.90;;;;;;4973855;28;20780;-47
2021/06/12 09:31:21;;;;;;;8.50;7.63;;;22.20;99.90;;;;;;4978855;28;20458;-49
2021/06/12 09:33:48;;;;;;;9.70;8.07;;;22.20;99.90;;;;;;4975911;28;20849;-47
2021/06/12 09:36:15;;;;;;;12.43;9.30;;;22.00;99.90;;;;;;4978209;28;20807;-48
2021/06/12 09:38:42;;;;;;;13.60;10.13;;;21.80;99.90;;;;;;4978079;28;20457;-46
2021/06/12 09:41:22;;;;;;;12.47;9.90;;;21.80;99.90;;;;;;4978819;28;20992;-44
2021/06/12 09:43:49;;;;;;;12.50;10.10;;;21.60;99.90;;;;;;4978882;28;20457;-43
2021/06/12 09:46:45;;;;;;;11.00;9.90;;;21.50;99.90;;;;;;4979069;28;20451;-46
2021/06/12 09:49:16;;;;;;;17.60;11.53;;;21.20;99.90;;;;;;4901030;29;20470;-49
2021/06/12 09:52:10;;;;;;;14.67;13.03;;;21.00;99.90;;;;;;4961687;28;20494;-49
2021/06/12 09:54:39;;;;;;;13.10;11.63;;;20.90;99.90;;;;;;4978268;28;20486;-46
2021/06/12 09:57:06;;;;;;;13.93;12.33;;;21.00;99.90;;;;;;4978036;28;20984;-49
2021/06/12 09:59:42;;;;;;;18.50;14.47;;;21.00;99.90;;;;;;4978167;28;20854;-52
2021/06/12 10:02:08;;;;;;;15.60;12.70;;;21.00;99.90;;;;;;4978218;28;20501;-50
2021/06/12 10:04:35;;;;;;;15.13;12.03;;;21.00;99.90;;;;;;4978269;28;20454;-48
2021/06/12 10:07:01;;;;;;;21.93;16.43;;;21.00;99.90;;;;;;4977780;28;20463;-50
2021/06/12 10:09:27;;;;;;;25.83;23.03;;;21.10;99.90;;;;;;4977947;28;20466;-47
2021/06/12 10:11:54;;;;;;;20.87;16.47;;;21.10;99.90;;;;;;4977909;28;20446;-47
2021/06/12 10:14:22;;;;;;;31.43;21.70;;;21.00;99.90;;;;;;4978061;28;20517;-46
2021/06/12 10:16:50;;;;;;;23.00;17.07;;;21.10;99.90;;;;;;4977855;28;20483;-44
2021/06/12 10:19:18;;;;;;;16.20;12.30;;;21.10;99.90;;;;;;4978221;28;20800;-47
2021/06/12 10:21:46;;;;;;;14.53;12.07;;;21.10;99.90;;;;;;4978453;28;20457;-47
2021/06/12 10:24:12;;;;;;;15.30;12.70;;;21.10;99.90;;;;;;4976754;28;20477;-53
2021/06/12 10:26:40;;;;;;;18.93;14.57;;;21.10;99.90;;;;;;4978112;28;20458;-49
2021/06/12 10:29:06;;;;;;;15.60;11.50;;;21.10;99.90;;;;;;4976974;28;20447;-50
2021/06/12 10:31:35;;;;;;;12.80;11.50;;;21.20;99.90;;;;;;4976464;28;20494;-51
2021/06/12 10:34:03;;;;;;;15.03;12.90;;;21.30;99.90;;;;;;4975437;28;20961;-45
2021/06/12 10:36:30;;;;;;;15.90;12.47;;;21.30;99.90;;;;;;4976179;28;21004;-48
2021/06/12 10:38:57;;;;;;;12.77;9.83;;;21.40;99.90;;;;;;4976270;28;20595;-53
2021/06/12 10:41:26;;;;;;;11.33;10.20;;;21.70;99.90;;;;;;4976371;28;20813;-53
2021/06/12 10:43:54;;;;;;;17.73;11.70;;;21.90;99.90;;;;;;4976042;28;20569;-50
2021/06/12 10:46:23;;;;;;;14.57;12.00;;;22.20;99.90;;;;;;4980042;28;20509;-52
2021/06/12 10:48:52;;;;;;;9.60;8.40;;;22.70;99.90;;;;;;4977124;28;20483;-50
2021/06/12 10:51:45;;;;;;;9.67;8.77;;;23.00;99.90;;;;;;4977044;28;20447;-52
2021/06/12 10:54:20;;;;;;;9.87;8.27;;;23.10;99.90;;;;;;4977013;28;20808;-47
2021/06/12 10:56:48;;;;;;;10.53;8.43;;;23.10;99.90;;;;;;4957426;28;20490;-48
2021/06/12 10:59:42;;;;;;;13.27;8.10;;;23.10;99.90;;;;;;4975015;28;20961;-52
2021/06/12 11:02:12;;;;;;;8.37;7.57;;;23.10;99.90;;;;;;4976605;28;20450;-48
2021/06/12 11:04:55;;;;;;;7.83;7.00;;;23.10;99.90;;;;;;4974489;28;20807;-49
2021/06/12 11:07:31;;;;;;;10.40;6.77;;;23.00;99.90;;;;;;4965470;28;20449;-49
2021/06/12 11:10:22;;;;;;;10.77;7.77;;;23.00;99.90;;;;;;4967842;28;20455;-50
2021/06/12 11:12:49;;;;;;;8.10;7.30;;;23.10;99.90;;;;;;4970055;28;20530;-46
2021/06/12 11:15:27;;;;;;;9.73;7.73;;;23.20;99.90;;;;;;4958162;28;20841;-47
2021/06/12 11:18:12;;;;;;;13.30;7.40;;;23.30;99.90;;;;;;4970624;28;20972;-45
2021/06/12 11:20:42;;;;;;;9.87;6.43;;;23.40;99.90;;;;;;4963866;28;20868;-48
2021/06/12 11:23:11;;;;;;;8.43;6.73;;;23.30;99.90;;;;;;4971707;28;20563;-50
2021/06/12 11:25:49;;;;;;;5.23;4.50;;;23.40;99.90;;;;;;4961564;28;20454;-48
2021/06/12 11:28:18;;;;;;;5.93;4.70;;;23.30;99.90;;;;;;4973740;28;20442;-47
2021/06/12 11:30:45;;;;;;;8.20;5.70;;;23.10;99.90;;;;;;4957556;28;20447;-46
2021/06/12 11:33:13;;;;;;;6.53;5.93;;;23.20;99.90;;;;;;4973086;28;20555;-47
2021/06/12 11:35:45;;;;;;;5.40;4.87;;;23.20;99.90;;;;;;4976082;28;20988;-50
2021/06/12 11:38:14;;;;;;;5.60;5.10;;;23.10;99.90;;;;;;4964293;28;20474;-45
2021/06/12 11:40:49;;;;;;;12.30;6.03;;;23.00;99.90;;;;;;4976185;28;20451;-45
2021/06/12 11:43:27;;;;;;;5.83;5.23;;;23.00;99.90;;;;;;4973543;28;20921;-52
2021/06/12 11:45:53;;;;;;;7.10;5.40;;;23.10;99.90;;;;;;4972494;28;20463;-47
2021/06/12 11:48:21;;;;;;;5.90;5.40;;;23.10;99.90;;;;;;4969068;28;20472;-47
2021/06/12 11:50:49;;;;;;;5.40;4.93;;;23.10;99.90;;;;;;4956559;29;20439;-46
2021/06/12 11:53:18;;;;;;;5.20;4.50;;;23.10;99.90;;;;;;4956777;29;20523;-45
2021/06/12 11:55:44;;;;;;;5.60;5.00;;;23.20;99.90;;;;;;4956800;29;20542;-44
2021/06/12 11:58:11;;;;;;;5.10;4.60;;;23.30;99.90;;;;;;4956927;29;20466;-44
2021/06/12 12:00:39;;;;;;;4.70;4.30;;;23.30;99.90;;;;;;4956822;29;20451;-45
2021/06/12 12:03:07;;;;;;;5.77;5.07;;;23.20;99.90;;;;;;4956734;29;20471;-46
2021/06/12 12:05:36;;;;;;;5.73;4.90;;;23.30;99.90;;;;;;4956655;29;20463;-46
2021/06/12 12:08:03;;;;;;;6.40;5.70;;;23.30;99.90;;;;;;4956303;29;20447;-48
2021/06/12 12:10:31;;;;;;;6.10;5.23;;;23.10;99.90;;;;;;4956513;29;20961;-45
2021/06/12 12:12:57;;;;;;;6.30;4.80;;;23.00;99.90;;;;;;4956422;29;20452;-46
2021/06/12 12:15:34;;;;;;;5.47;4.90;;;22.90;99.90;;;;;;4956308;29;20452;-52
2021/06/12 12:18:05;;;;;;;6.67;4.53;;;22.90;99.90;;;;;;4956283;29;20459;-49
2021/06/12 12:20:36;;;;;;;6.50;4.97;;;22.90;99.90;;;;;;4956314;29;20444;-50
2021/06/12 12:23:17;;;;;;;4.57;4.17;;;22.80;99.90;;;;;;4956699;29;20455;-50
2021/06/12 12:25:46;;;;;;;10.57;4.50;;;22.60;99.90;;;;;;4956518;29;20786;-46
2021/06/12 12:28:18;;;;;;;6.50;4.37;;;22.30;99.90;;;;;;4956278;29;20519;-48
2021/06/12 12:30:45;;;;;;;3.63;3.33;;;21.70;99.90;;;;;;4956982;29;20760;-48
2021/06/12 12:33:12;;;;;;;4.13;3.73;;;21.00;99.90;;;;;;4956450;29;20532;-48
2021/06/12 12:35:39;;;;;;;5.43;4.07;;;20.50;99.90;;;;;;4956829;29;20467;-45
2021/06/12 12:38:17;;;;;;;6.70;4.87;;;20.20;99.90;;;;;;4957157;29;20456;-49
2021/06/12 12:40:44;;;;;;;4.47;3.77;;;19.90;99.90;;;;;;4956364;29;20467;-49
2021/06/12 12:43:13;;;;;;;4.43;3.93;;;19.80;99.90;;;;;;4956693;29;20460;-48
2021/06/12 12:45:41;;;;;;;5.03;4.03;;;19.70;99.90;;;;;;4956719;29;20993;-43
2021/06/12 12:48:08;;;;;;;4.70;4.20;;;19.60;99.90;;;;;;4969483;28;20503;-46
2021/06/12 12:50:35;;;;;;;8.93;3.67;;;19.40;99.90;;;;;;4978858;28;20428;-45